Time;durP1;ratioP1;P1;durP2;ratioP2;P2;SDS_P1;SDS_P2;PMS_P1;PMS_P2;Temp;Humidity;BMP_temperature;BMP_pressure;BME280_temperature;BME280_humidity;BME280_pressure;Samples;Min_cycle;Max_cycle;Signal;HPM_P1;HPM_P2
2023/09/20 00:01:37;;;;;;;3.30;1.63;;;19.00;99.90;;;;;;5071344;27;20036;-36
2023/09/20 00:04:06;;;;;;;3.05;1.63;;;19.00;99.90;;;;;;5110382;27;20029;-36
2023/09/20 00:06:31;;;;;;;4.35;1.60;;;19.00;99.90;;;;;;5069020;27;20019;-36
2023/09/20 00:08:58;;;;;;;3.75;1.90;;;19.00;99.90;;;;;;5120786;27;20135;-36
2023/09/20 00:11:24;;;;;;;2.53;1.67;;;19.00;99.90;;;;;;5064092;27;20032;-34
2023/09/20 00:13:52;;;;;;;4.93;1.80;;;19.00;99.90;;;;;;5106136;27;20492;-36
2023/09/20 00:16:22;;;;;;;4.20;1.63;;;19.00;99.90;;;;;;5166416;27;20030;-34
2023/09/20 00:18:47;;;;;;;2.60;1.73;;;19.00;99.90;;;;;;5100896;27;20034;-35
2023/09/20 00:21:13;;;;;;;2.03;1.48;;;19.00;99.90;;;;;;5165610;27;20397;-36
2023/09/20 00:23:38;;;;;;;2.80;1.40;;;19.00;99.90;;;;;;5100262;27;20123;-35
2023/09/20 00:26:04;;;;;;;3.28;1.48;;;19.10;99.90;;;;;;5168029;27;20385;-36
2023/09/20 00:28:32;;;;;;;3.45;1.60;;;19.10;99.90;;;;;;5113428;27;20453;-34
2023/09/20 00:30:58;;;;;;;3.67;1.70;;;19.10;99.90;;;;;;5064655;28;20052;-35
2023/09/20 00:33:24;;;;;;;3.83;1.80;;;19.10;99.90;;;;;;5107340;27;20027;-35
2023/09/20 00:35:50;;;;;;;4.25;2.15;;;19.10;99.90;;;;;;5087082;27;20033;-36
2023/09/20 00:38:16;;;;;;;4.00;1.65;;;19.00;99.90;;;;;;5093640;27;20759;-35
2023/09/20 00:40:48;;;;;;;3.47;1.70;;;19.10;99.90;;;;;;5171549;27;20030;-35
2023/09/20 00:43:21;;;;;;;3.35;1.77;;;19.10;99.90;;;;;;5149560;27;20026;-35
2023/09/20 00:45:50;;;;;;;7.28;2.08;;;19.10;99.90;;;;;;5130122;27;20022;-36
2023/09/20 00:48:17;;;;;;;4.97;2.15;;;19.10;99.90;;;;;;5155362;27;20018;-35
2023/09/20 00:50:43;;;;;;;5.18;1.77;;;19.10;99.90;;;;;;5119581;27;20033;-35
2023/09/20 00:53:13;;;;;;;3.58;2.00;;;19.00;99.90;;;;;;5162448;27;20028;-35
2023/09/20 00:55:42;;;;;;;3.40;1.70;;;19.00;99.90;;;;;;5110299;27;20373;-34
2023/09/20 00:58:16;;;;;;;3.42;2.00;;;19.00;99.90;;;;;;5162723;27;20058;-34
2023/09/20 01:00:45;;;;;;;4.35;1.95;;;19.00;99.90;;;;;;5111104;27;20150;-35
2023/09/20 01:03:18;;;;;;;5.88;2.30;;;18.90;99.90;;;;;;5161688;27;20033;-34
2023/09/20 01:05:48;;;;;;;3.55;2.10;;;19.00;99.90;;;;;;5123857;27;20017;-35
2023/09/20 01:08:14;;;;;;;5.60;2.08;;;19.00;99.90;;;;;;5065576;27;20032;-35
2023/09/20 01:10:40;;;;;;;4.88;2.10;;;19.00;99.90;;;;;;5128165;27;20025;-35
2023/09/20 01:13:09;;;;;;;4.50;2.10;;;19.00;99.90;;;;;;5064654;27;20039;-40
2023/09/20 01:15:36;;;;;;;4.35;2.05;;;19.00;99.90;;;;;;5103053;27;20135;-35
2023/09/20 01:18:04;;;;;;;3.78;1.77;;;19.00;99.90;;;;;;5169168;27;20358;-35
2023/09/20 01:20:32;;;;;;;2.80;1.70;;;18.90;99.90;;;;;;5103210;27;20020;-35
2023/09/20 01:22:58;;;;;;;4.05;1.63;;;18.90;99.90;;;;;;5044349;28;20029;-35
2023/09/20 01:25:29;;;;;;;5.85;1.80;;;18.90;99.90;;;;;;5111995;27;20022;-35
2023/09/20 01:27:59;;;;;;;8.70;2.10;;;18.80;99.90;;;;;;5071354;27;20037;-34
2023/09/20 01:30:26;;;;;;;2.25;1.63;;;18.80;99.90;;;;;;5111917;27;20060;-34
2023/09/20 01:33:00;;;;;;;3.08;1.70;;;18.70;99.90;;;;;;5080128;27;20072;-34
2023/09/20 01:35:28;;;;;;;4.97;1.83;;;18.70;99.90;;;;;;5104887;27;20006;-36
2023/09/20 01:37:55;;;;;;;3.95;1.65;;;18.60;99.90;;;;;;5086940;27;20073;-35
2023/09/20 01:40:28;;;;;;;2.92;1.65;;;18.60;99.90;;;;;;5092869;27;20461;-36
2023/09/20 01:42:58;;;;;;;5.32;2.13;;;18.50;99.90;;;;;;5094629;27;20285;-34
2023/09/20 01:45:23;;;;;;;4.43;1.75;;;18.50;99.90;;;;;;5087508;27;20030;-35
2023/09/20 01:47:52;;;;;;;6.30;1.90;;;18.40;99.90;;;;;;5105329;27;20036;-35
2023/09/20 01:50:19;;;;;;;4.43;1.88;;;18.30;99.90;;;;;;5075081;27;20432;-36
2023/09/20 01:52:49;;;;;;;4.30;2.40;;;18.30;99.90;;;;;;5115555;27;20053;-35
2023/09/20 01:55:22;;;;;;;3.45;2.10;;;18.30;99.90;;;;;;5070342;27;20089;-36
2023/09/20 01:57:50;;;;;;;4.00;2.10;;;18.20;99.90;;;;;;5101129;27;20082;-36
2023/09/20 02:00:33;;;;;;;3.53;1.80;;;18.20;99.90;;;;;;5160753;27;20035;-36
2023/09/20 02:03:00;;;;;;;4.53;1.52;;;18.20;99.90;;;;;;5098004;27;20196;-35
2023/09/20 02:05:27;;;;;;;3.38;1.50;;;18.10;99.90;;;;;;5070527;27;21047;-35
2023/09/20 02:07:54;;;;;;;4.68;1.83;;;18.00;99.90;;;;;;5122336;27;20099;-34
2023/09/20 02:10:23;;;;;;;4.15;1.70;;;18.00;99.90;;;;;;5065983;27;20060;-36
2023/09/20 02:12:53;;;;;;;3.03;1.80;;;18.00;99.90;;;;;;5122318;27;20549;-36
2023/09/20 02:15:20;;;;;;;3.97;1.80;;;17.90;99.90;;;;;;5063657;27;20387;-35
2023/09/20 02:17:46;;;;;;;3.88;2.17;;;17.90;99.90;;;;;;5149632;27;20021;-37
2023/09/20 02:20:19;;;;;;;2.50;1.60;;;17.90;99.90;;;;;;5061943;28;20111;-36
2023/09/20 02:22:48;;;;;;;4.22;1.70;;;17.90;99.90;;;;;;5129005;27;20566;-35
2023/09/20 02:25:20;;;;;;;6.38;2.28;;;17.90;99.90;;;;;;5062432;27;20104;-35
2023/09/20 02:27:46;;;;;;;3.65;2.10;;;17.90;99.90;;;;;;5083653;27;20073;-35
2023/09/20 02:30:16;;;;;;;3.75;2.00;;;17.90;99.90;;;;;;5167897;27;20471;-33
2023/09/20 02:32:46;;;;;;;3.67;2.20;;;17.80;99.90;;;;;;5111964;27;20024;-36
2023/09/20 02:35:12;;;;;;;3.35;1.73;;;17.80;99.90;;;;;;5161039;27;20057;-35
2023/09/20 02:37:40;;;;;;;4.00;1.60;;;17.80;99.90;;;;;;5122410;27;20052;-35
2023/09/20 02:40:07;;;;;;;4.05;1.70;;;17.80;99.90;;;;;;5150932;27;20030;-35
2023/09/20 02:42:43;;;;;;;5.07;2.08;;;17.80;99.90;;;;;;5133057;27;20040;-35
2023/09/20 02:45:15;;;;;;;3.85;1.77;;;17.70;99.90;;;;;;5144410;27;20225;-34
2023/09/20 02:47:46;;;;;;;3.47;1.63;;;17.80;99.90;;;;;;5134336;27;20032;-36
2023/09/20 02:50:13;;;;;;;2.88;1.50;;;17.70;99.90;;;;;;5137781;27;20070;-35
2023/09/20 02:52:41;;;;;;;3.45;1.40;;;17.70;99.90;;;;;;5142940;27;20043;-36
2023/09/20 02:55:14;;;;;;;2.00;1.20;;;17.70;99.90;;;;;;5127495;27;20022;-36
2023/09/20 02:57:41;;;;;;;3.15;1.73;;;17.60;99.90;;;;;;5149764;27;20143;-35
2023/09/20 03:00:21;;;;;;;2.67;1.60;;;17.60;99.90;;;;;;5120269;27;20025;-35
2023/09/20 03:03:01;;;;;;;2.72;1.40;;;17.60;99.90;;;;;;5151990;27;20030;-35
2023/09/20 03:05:32;;;;;;;1.77;1.30;;;17.60;99.90;;;;;;5042578;28;20555;-36
2023/09/20 03:07:58;;;;;;;3.35;1.70;;;17.60;99.90;;;;;;5073149;27;20030;-36
2023/09/20 03:10:25;;;;;;;2.75;1.65;;;17.50;99.90;;;;;;5117225;27;20045;-44
2023/09/20 03:12:57;;;;;;;3.05;1.70;;;17.50;99.90;;;;;;5160670;27;20052;-36
2023/09/20 03:15:25;;;;;;;3.67;1.40;;;17.60;99.90;;;;;;5098605;27;20026;-36
2023/09/20 03:17:56;;;;;;;2.67;1.30;;;17.50;99.90;;;;;;5160012;27;20071;-36
2023/09/20 03:20:25;;;;;;;2.25;1.60;;;17.50;99.90;;;;;;5079494;27;20045;-35
2023/09/20 03:22:57;;;;;;;2.83;1.40;;;17.50;99.90;;;;;;5051362;27;20142;-36
2023/09/20 03:25:23;;;;;;;2.13;1.60;;;17.50;99.90;;;;;;5120490;27;20025;-36
2023/09/20 03:27:51;;;;;;;1.75;1.30;;;17.40;99.90;;;;;;5063990;27;20286;-35
2023/09/20 03:30:17;;;;;;;2.15;1.27;;;17.40;99.90;;;;;;5099946;27;20018;-37
2023/09/20 03:32:47;;;;;;;2.90;1.33;;;17.40;99.90;;;;;;5168050;27;20791;-34
2023/09/20 03:35:14;;;;;;;2.17;1.20;;;17.40;99.90;;;;;;5091227;27;20029;-35
2023/09/20 03:37:41;;;;;;;2.13;1.42;;;17.40;99.90;;;;;;5061684;28;20410;-38
2023/09/20 03:40:16;;;;;;;3.00;1.70;;;17.40;99.90;;;;;;5125951;27;20018;-35
2023/09/20 03:42:42;;;;;;;3.03;1.42;;;17.40;99.90;;;;;;5043128;28;20480;-34
2023/09/20 03:45:10;;;;;;;4.10;1.42;;;17.40;99.90;;;;;;5114322;27;20027;-34
2023/09/20 03:47:36;;;;;;;4.03;2.47;;;17.40;99.90;;;;;;5068389;27;20088;-35
2023/09/20 03:50:03;;;;;;;1.83;1.15;;;17.40;99.90;;;;;;5084398;27;20031;-37
2023/09/20 03:52:29;;;;;;;3.67;1.50;;;17.40;99.90;;;;;;5149448;27;20133;-36
2023/09/20 03:54:55;;;;;;;1.92;1.20;;;17.40;99.90;;;;;;5134408;27;20169;-37
2023/09/20 03:57:24;;;;;;;2.92;1.63;;;17.40;99.90;;;;;;5135159;27;20029;-36
2023/09/20 03:59:54;;;;;;;2.15;1.42;;;17.40;99.90;;;;;;5145168;27;20028;-35
2023/09/20 04:02:23;;;;;;;3.35;1.10;;;17.40;99.90;;;;;;5126708;27;20062;-37
2023/09/20 04:04:50;;;;;;;1.42;1.30;;;17.40;99.90;;;;;;5118937;27;20105;-36
2023/09/20 04:07:16;;;;;;;2.40;1.30;;;17.40;99.90;;;;;;5119521;27;20026;-36
2023/09/20 04:09:44;;;;;;;3.30;1.33;;;17.40;99.90;;;;;;5164583;27;20021;-34
2023/09/20 04:12:10;;;;;;;2.72;1.27;;;17.50;99.90;;;;;;5112036;27;20567;-40
2023/09/20 04:14:36;;;;;;;2.30;1.25;;;17.50;99.90;;;;;;5163129;27;20018;-35
2023/09/20 04:17:04;;;;;;;3.63;1.55;;;17.60;99.90;;;;;;5111880;27;20023;-36
2023/09/20 04:19:30;;;;;;;2.95;1.52;;;17.60;99.90;;;;;;5170659;27;20030;-37
2023/09/20 04:21:56;;;;;;;5.25;1.70;;;17.60;99.90;;;;;;5131437;27;20040;-36
2023/09/20 04:24:22;;;;;;;2.75;1.63;;;17.70;99.90;;;;;;5064853;28;20028;-36
2023/09/20 04:26:49;;;;;;;3.20;1.60;;;17.70;99.90;;;;;;5131245;27;20014;-36
2023/09/20 04:29:15;;;;;;;2.08;1.60;;;17.80;99.90;;;;;;5064423;28;20052;-35
2023/09/20 04:31:43;;;;;;;2.33;1.63;;;17.70;99.90;;;;;;5121922;27;20057;-36
2023/09/20 04:34:11;;;;;;;2.90;1.83;;;17.80;99.90;;;;;;5070348;27;20048;-35
2023/09/20 04:36:40;;;;;;;5.72;2.78;;;17.80;99.90;;;;;;5111842;27;20504;-37
2023/09/20 04:39:06;;;;;;;4.47;1.95;;;17.80;99.90;;;;;;5080866;27;20452;-35
2023/09/20 04:41:34;;;;;;;3.80;2.00;;;17.70;99.90;;;;;;5100480;27;20544;-36
2023/09/20 04:44:00;;;;;;;2.70;1.88;;;17.70;99.90;;;;;;5092668;27;20029;-35
2023/09/20 04:46:27;;;;;;;3.70;2.03;;;17.70;99.90;;;;;;5088222;27;20054;-36
2023/09/20 04:48:53;;;;;;;3.10;1.90;;;17.60;99.90;;;;;;5105185;27;20063;-34
2023/09/20 04:51:19;;;;;;;3.22;1.60;;;17.60;99.90;;;;;;5075852;27;20052;-36
2023/09/20 04:53:44;;;;;;;3.47;1.80;;;17.60;99.90;;;;;;5118918;27;20056;-36
2023/09/20 04:56:13;;;;;;;2.85;1.70;;;17.60;99.90;;;;;;5070567;27;20439;-35
2023/09/20 04:58:38;;;;;;;3.45;1.67;;;17.60;99.90;;;;;;5122868;27;20031;-35
2023/09/20 05:01:05;;;;;;;3.33;1.70;;;17.60;99.90;;;;;;5066596;27;20037;-35
2023/09/20 05:03:31;;;;;;;3.08;1.73;;;17.50;99.90;;;;;;5138914;27;20018;-36
2023/09/20 05:05:56;;;;;;;4.47;1.90;;;17.50;99.90;;;;;;5169195;27;20036;-36
2023/09/20 05:08:22;;;;;;;3.58;1.95;;;17.50;99.90;;;;;;5102581;27;20143;-35
2023/09/20 05:10:48;;;;;;;3.25;1.88;;;17.50;99.90;;;;;;5168433;27;20041;-35
2023/09/20 05:13:13;;;;;;;3.95;2.10;;;17.50;99.90;;;;;;5103309;27;20729;-35
2023/09/20 05:15:39;;;;;;;3.22;1.75;;;17.50;99.90;;;;;;5167346;27;20029;-36
2023/09/20 05:18:06;;;;;;;4.20;2.03;;;17.40;99.90;;;;;;5118154;27;20029;-35
2023/09/20 05:20:32;;;;;;;2.80;1.80;;;17.40;99.90;;;;;;5155304;27;20025;-35
2023/09/20 05:22:59;;;;;;;4.50;1.85;;;17.40;99.90;;;;;;5130572;27;20063;-34
2023/09/20 05:25:28;;;;;;;3.28;1.95;;;17.40;99.90;;;;;;5141969;27;20037;-34
2023/09/20 05:27:54;;;;;;;2.58;2.00;;;17.30;99.90;;;;;;5141679;27;20516;-35
2023/09/20 05:30:21;;;;;;;5.50;2.10;;;17.30;99.90;;;;;;5130044;27;20413;-36
2023/09/20 05:32:51;;;;;;;3.30;1.95;;;17.30;99.90;;;;;;5152517;27;20030;-35
2023/09/20 05:35:17;;;;;;;3.00;1.67;;;17.30;99.90;;;;;;5120352;27;20125;-34
2023/09/20 05:37:45;;;;;;;3.35;1.98;;;17.30;99.90;;;;;;5145006;27;20060;-37
2023/09/20 05:40:17;;;;;;;4.40;2.00;;;17.30;99.90;;;;;;5122443;27;20027;-36
2023/09/20 05:42:46;;;;;;;2.47;1.65;;;17.30;99.90;;;;;;5070520;27;20113;-36
2023/09/20 05:45:14;;;;;;;2.92;1.80;;;17.30;99.90;;;;;;5121787;27;20063;-37
2023/09/20 05:47:41;;;;;;;2.03;1.83;;;17.30;99.90;;;;;;5070044;27;20059;-36
2023/09/20 05:50:10;;;;;;;3.20;2.00;;;17.30;99.90;;;;;;5118643;27;20820;-35
2023/09/20 05:52:40;;;;;;;2.70;1.83;;;17.30;99.90;;;;;;5063429;28;20028;-35
2023/09/20 05:55:13;;;;;;;6.78;2.75;;;17.30;99.90;;;;;;5147978;27;20121;-36
2023/09/20 05:57:42;;;;;;;2.55;1.80;;;17.40;99.90;;;;;;5169864;27;20022;-35
2023/09/20 06:00:22;;;;;;;2.85;1.85;;;17.40;99.90;;;;;;5147454;27;20018;-35
2023/09/20 06:02:49;;;;;;;3.58;2.03;;;17.40;99.90;;;;;;5063050;28;20144;-35
2023/09/20 06:05:16;;;;;;;2.50;1.70;;;17.40;99.90;;;;;;5128375;27;20012;-35
2023/09/20 06:07:44;;;;;;;3.03;1.42;;;17.50;99.90;;;;;;5063507;27;20035;-37
2023/09/20 06:10:13;;;;;;;2.67;1.88;;;17.50;99.90;;;;;;5102742;27;20016;-36
2023/09/20 06:12:39;;;;;;;3.35;2.00;;;17.60;99.90;;;;;;5042376;27;20037;-37
2023/09/20 06:15:07;;;;;;;3.50;1.88;;;17.50;99.90;;;;;;5111637;27;20026;-37
2023/09/20 06:17:33;;;;;;;3.28;1.77;;;17.60;99.90;;;;;;5071633;27;20448;-36
2023/09/20 06:20:00;;;;;;;3.60;2.00;;;17.70;99.90;;;;;;5102561;27;20051;-35
2023/09/20 06:22:29;;;;;;;2.92;1.90;;;17.70;99.90;;;;;;5084659;27;20085;-35
2023/09/20 06:24:58;;;;;;;3.80;2.05;;;17.80;99.90;;;;;;5093835;27;20026;-36
2023/09/20 06:27:25;;;;;;;2.65;1.80;;;17.80;99.90;;;;;;5090734;27;20039;-36
2023/09/20 06:29:52;;;;;;;3.33;1.80;;;17.90;99.90;;;;;;5084527;27;20075;-36
2023/09/20 06:32:18;;;;;;;2.40;1.73;;;17.90;99.90;;;;;;5104478;27;20107;-35
2023/09/20 06:34:52;;;;;;;2.60;1.90;;;18.00;99.90;;;;;;5088726;27;20022;-36
2023/09/20 06:37:19;;;;;;;3.42;1.80;;;18.00;99.90;;;;;;5117323;27;20065;-36
2023/09/20 06:39:44;;;;;;;2.92;1.60;;;18.00;99.90;;;;;;5159655;27;20507;-37
2023/09/20 06:42:10;;;;;;;3.28;1.70;;;18.00;99.90;;;;;;5106980;27;20034;-36
2023/09/20 06:44:38;;;;;;;2.53;1.50;;;18.10;99.90;;;;;;5159624;27;20071;-35
2023/09/20 06:47:06;;;;;;;3.10;1.45;;;18.10;99.90;;;;;;5107531;27;20086;-36
2023/09/20 06:49:32;;;;;;;4.28;1.67;;;18.20;99.90;;;;;;5167115;27;20023;-36
2023/09/20 06:52:03;;;;;;;3.30;1.73;;;18.20;99.90;;;;;;5126791;27;20028;-37
2023/09/20 06:54:35;;;;;;;2.97;1.58;;;18.20;99.90;;;;;;5061985;28;20111;-36
2023/09/20 06:57:05;;;;;;;3.92;1.70;;;18.20;99.90;;;;;;5128328;27;20030;-36
2023/09/20 06:59:32;;;;;;;3.05;2.05;;;18.20;99.90;;;;;;5063551;28;20028;-36
2023/09/20 07:02:01;;;;;;;4.43;2.65;;;18.20;99.90;;;;;;5127791;27;20034;-36
2023/09/20 07:04:28;;;;;;;6.35;3.30;;;18.20;99.90;;;;;;5110731;27;20019;-36
2023/09/20 07:07:00;;;;;;;2.67;2.20;;;18.20;99.90;;;;;;5142342;27;20057;-39
2023/09/20 07:09:26;;;;;;;;;;;18.20;99.90;;;;;;5064637;27;20479;-36
2023/09/20 07:11:51;;;;;;;5.70;2.75;;;18.20;99.90;;;;;;5111927;27;19907;-36
2023/09/20 07:14:20;;;;;;;2.38;1.80;;;18.30;99.90;;;;;;5078178;27;20098;-36
2023/09/20 07:16:51;;;;;;;4.28;2.20;;;18.30;99.90;;;;;;5100180;27;20030;-35
2023/09/20 07:19:18;;;;;;;5.35;1.85;;;18.50;99.90;;;;;;5085712;27;20111;-36
2023/09/20 07:21:46;;;;;;;3.13;1.80;;;18.50;99.90;;;;;;5070282;27;20047;-36
2023/09/20 07:24:20;;;;;;;3.90;2.20;;;18.60;99.90;;;;;;5131155;27;20428;-35
2023/09/20 07:26:45;;;;;;;3.20;1.98;;;18.80;99.90;;;;;;5145376;27;20029;-36
2023/09/20 07:29:15;;;;;;;2.97;1.80;;;18.90;99.90;;;;;;5123121;27;20114;-36
2023/09/20 07:31:42;;;;;;;3.38;1.70;;;19.00;99.90;;;;;;5155552;27;20610;-36
2023/09/20 07:34:10;;;;;;;4.75;1.83;;;19.10;99.90;;;;;;5113500;27;20014;-37
2023/09/20 07:36:40;;;;;;;3.00;1.70;;;19.10;99.90;;;;;;5160239;27;20019;-37
2023/09/20 07:39:08;;;;;;;2.28;1.75;;;19.10;99.90;;;;;;5111603;27;20015;-36
2023/09/20 07:41:34;;;;;;;2.05;1.52;;;19.20;99.90;;;;;;5164308;27;20030;-36
2023/09/20 07:44:04;;;;;;;1.98;1.70;;;19.20;99.90;;;;;;5110993;27;20505;-37
2023/09/20 07:46:33;;;;;;;3.47;1.90;;;19.30;99.90;;;;;;5170545;27;20042;-37
2023/09/20 07:49:09;;;;;;;3.30;2.13;;;19.20;99.90;;;;;;5107913;27;20026;-37
2023/09/20 07:51:45;;;;;;;3.33;1.80;;;19.30;99.90;;;;;;5171468;27;20030;-36
2023/09/20 07:54:17;;;;;;;2.50;1.63;;;19.30;99.90;;;;;;5108174;27;20014;-37
2023/09/20 07:56:49;;;;;;;3.22;1.60;;;19.30;99.90;;;;;;5171522;27;20087;-36
2023/09/20 07:59:16;;;;;;;1.77;1.65;;;19.30;99.90;;;;;;5102094;27;20041;-35
2023/09/20 08:01:43;;;;;;;3.20;1.75;;;19.50;99.90;;;;;;5171441;27;20788;-37
2023/09/20 08:04:10;;;;;;;3.08;1.67;;;19.50;99.90;;;;;;5126729;27;20036;-37
2023/09/20 08:06:37;;;;;;;3.13;1.70;;;19.60;99.90;;;;;;5170183;27;20496;-37
2023/09/20 08:09:04;;;;;;;3.28;1.58;;;19.60;99.90;;;;;;5108631;27;20484;-36
2023/09/20 08:11:31;;;;;;;3.50;1.70;;;19.70;99.90;;;;;;5167564;27;20427;-35
2023/09/20 08:13:59;;;;;;;2.20;1.60;;;19.80;99.90;;;;;;5120393;27;20085;-36
2023/09/20 08:16:30;;;;;;;1.77;1.40;;;19.90;99.90;;;;;;5156071;27;20503;-35
2023/09/20 08:21:44;;;;;;;4.28;2.00;;;20.00;99.90;;;;;;5160674;27;20457;-36
2023/09/20 09:00:31;;;;;;;2.83;1.80;;;20.10;99.90;;;;;;5128453;27;20065;-36
2023/09/20 09:03:04;;;;;;;3.13;1.80;;;20.10;99.90;;;;;;5153975;27;20480;-37
2023/09/20 09:05:33;;;;;;;1.73;1.33;;;20.10;99.90;;;;;;5126170;27;20030;-36
2023/09/20 09:08:03;;;;;;;2.33;1.58;;;20.00;99.90;;;;;;5084089;27;20020;-36
2023/09/20 09:10:29;;;;;;;2.70;1.50;;;19.90;99.90;;;;;;5098668;27;20101;-36
2023/09/20 09:12:55;;;;;;;2.70;1.60;;;19.90;99.90;;;;;;5095787;27;20115;-35
2023/09/20 09:15:23;;;;;;;2.30;1.40;;;19.90;99.90;;;;;;5083717;27;20551;-35
2023/09/20 09:17:48;;;;;;;1.30;1.20;;;19.90;99.90;;;;;;5107511;27;20136;-36
2023/09/20 09:20:21;;;;;;;1.42;1.15;;;20.00;99.90;;;;;;5072141;27;20024;-35
2023/09/20 09:22:49;;;;;;;1.98;1.38;;;20.10;99.90;;;;;;5115693;27;20057;-37
2023/09/20 09:25:18;;;;;;;2.45;1.63;;;20.10;99.90;;;;;;5070546;27;20129;-36
2023/09/20 09:27:44;;;;;;;2.22;1.70;;;20.20;99.90;;;;;;5123509;27;20164;-35
2023/09/20 09:30:12;;;;;;;3.38;2.00;;;20.20;99.90;;;;;;5069789;27;20036;-35
2023/09/20 09:32:38;;;;;;;5.20;1.63;;;20.30;99.90;;;;;;5122881;27;20496;-35
2023/09/20 09:35:08;;;;;;;2.70;1.70;;;20.30;99.90;;;;;;5063738;27;20144;-37
2023/09/20 09:37:40;;;;;;;3.53;1.90;;;20.40;99.90;;;;;;5102914;27;20025;-42
2023/09/20 09:40:06;;;;;;;;;;;20.40;99.90;;;;;;5169205;27;20018;-36
2023/09/20 09:42:32;;;;;;;3.10;1.60;;;20.40;99.90;;;;;;5101699;27;20505;-35
2023/09/20 09:44:58;;;;;;;2.80;1.98;;;20.50;99.90;;;;;;5168470;27;20022;-37
2023/09/20 09:47:44;;;;;;;3.17;1.88;;;20.50;99.90;;;;;;5102747;27;20111;-37
2023/09/20 09:50:10;;;;;;;3.22;2.10;;;20.60;99.90;;;;;;5041959;28;20029;-36
2023/09/20 09:52:43;;;;;;;2.70;1.83;;;20.60;99.90;;;;;;5127203;27;20018;-36
2023/09/20 09:55:09;;;;;;;3.22;2.10;;;20.60;99.90;;;;;;5063057;28;20025;-36
2023/09/20 09:57:34;;;;;;;3.30;2.50;;;20.70;99.90;;;;;;5120888;27;20026;-36
2023/09/20 10:00:01;;;;;;;4.22;2.60;;;20.80;99.90;;;;;;5070606;27;20517;-36
2023/09/20 10:02:31;;;;;;;3.58;2.30;;;20.90;99.90;;;;;;5108203;27;20030;-37
2023/09/20 10:05:01;;;;;;;3.53;2.33;;;21.00;99.90;;;;;;5138326;27;20025;-36
2023/09/20 10:07:35;;;;;;;4.88;2.25;;;21.00;99.90;;;;;;5131183;27;20033;-36
2023/09/20 10:10:12;;;;;;;4.10;2.30;;;21.00;99.90;;;;;;5146427;27;20014;-35
2023/09/20 10:12:39;;;;;;;4.25;2.50;;;21.10;99.90;;;;;;5129286;27;20035;-37
2023/09/20 10:15:11;;;;;;;2.50;2.15;;;21.10;99.90;;;;;;5140914;27;20129;-37
2023/09/20 10:17:54;;;;;;;2.85;2.05;;;21.10;99.90;;;;;;5138498;27;20408;-36
2023/09/20 10:20:22;;;;;;;2.67;1.98;;;21.20;99.90;;;;;;5144911;27;20022;-35
2023/09/20 10:22:49;;;;;;;3.42;2.25;;;21.30;99.90;;;;;;5137743;27;20136;-35
2023/09/20 10:25:36;;;;;;;2.53;1.98;;;21.40;99.90;;;;;;5133069;27;20043;-36
2023/09/20 10:28:04;;;;;;;3.00;2.00;;;21.40;99.90;;;;;;5134781;27;20024;-36
2023/09/20 10:30:34;;;;;;;3.60;2.00;;;21.50;99.90;;;;;;5136975;27;20034;-36
2023/09/20 10:33:03;;;;;;;4.90;2.38;;;21.50;99.90;;;;;;5143680;27;20025;-36
2023/09/20 10:35:30;;;;;;;4.32;2.10;;;21.40;99.90;;;;;;5129308;27;20026;-36
2023/09/20 10:38:08;;;;;;;2.10;1.70;;;21.40;99.90;;;;;;5146450;27;20044;-34
2023/09/20 10:40:50;;;;;;;3.80;2.35;;;21.30;99.90;;;;;;5105598;27;20399;-37
2023/09/20 10:43:25;;;;;;;2.58;1.90;;;21.30;99.90;;;;;;5082838;27;20041;-38
2023/09/20 10:45:52;;;;;;;4.35;2.28;;;21.30;99.90;;;;;;5129759;27;20018;-37
2023/09/20 10:48:18;;;;;;;2.78;2.28;;;21.30;99.90;;;;;;5151983;27;20026;-36
2023/09/20 10:51:05;;;;;;;2.97;2.00;;;21.40;99.90;;;;;;5117103;27;20022;-37
2023/09/20 10:53:43;;;;;;;2.50;1.92;;;21.50;99.90;;;;;;5151391;27;20066;-36
2023/09/20 10:56:10;;;;;;;3.75;2.92;;;21.70;99.90;;;;;;5126977;27;20030;-36
2023/09/20 10:58:42;;;;;;;4.38;2.05;;;21.90;99.90;;;;;;5155019;27;20022;-36
2023/09/20 11:01:08;;;;;;;3.47;2.10;;;22.00;99.90;;;;;;5118126;27;20034;-36
2023/09/20 11:03:34;;;;;;;2.53;2.00;;;22.10;99.90;;;;;;5149182;27;20028;-36
2023/09/20 11:06:00;;;;;;;2.17;1.92;;;22.00;99.90;;;;;;5062508;27;20028;-36
2023/09/20 11:08:26;;;;;;;3.08;2.00;;;22.00;99.90;;;;;;5083847;27;20477;-36
2023/09/20 11:10:54;;;;;;;2.67;1.90;;;22.00;99.90;;;;;;5108409;27;20067;-36
2023/09/20 11:13:22;;;;;;;2.05;1.60;;;22.10;99.90;;;;;;5166363;27;21103;-36
2023/09/20 11:15:48;;;;;;;3.72;1.50;;;22.10;99.90;;;;;;5127054;27;20032;-36
2023/09/20 11:18:20;;;;;;;2.28;1.40;;;22.20;99.90;;;;;;5061227;28;20479;-37
2023/09/20 11:20:51;;;;;;;2.50;1.60;;;22.30;99.90;;;;;;5127464;27;20087;-34
2023/09/20 11:23:17;;;;;;;2.38;1.60;;;22.30;99.90;;;;;;5061019;28;20031;-35
2023/09/20 11:25:48;;;;;;;2.53;1.55;;;22.40;99.90;;;;;;5128106;27;20019;-37
2023/09/20 11:28:14;;;;;;;1.95;1.40;;;22.30;99.90;;;;;;5061567;28;20578;-36
2023/09/20 11:30:43;;;;;;;2.63;1.63;;;22.30;99.90;;;;;;5117519;27;20046;-36
2023/09/20 11:33:26;;;;;;;2.88;1.48;;;22.30;99.90;;;;;;5067104;27;20501;-46
2023/09/20 11:35:51;;;;;;;2.77;1.70;;;22.30;99.90;;;;;;5119586;27;20136;-36
2023/09/20 11:38:17;;;;;;;1.42;1.33;;;22.30;99.90;;;;;;5068798;27;20030;-34
2023/09/20 11:40:42;;;;;;;2.53;1.27;;;22.30;99.90;;;;;;5106456;27;20019;-37
2023/09/20 11:43:12;;;;;;;3.45;1.65;;;22.30;99.90;;;;;;5082474;27;20051;-37
2023/09/20 11:45:41;;;;;;;1.63;1.50;;;22.30;99.90;;;;;;5094832;27;20489;-35
2023/09/20 11:48:10;;;;;;;1.67;1.40;;;22.30;99.90;;;;;;5091842;27;20051;-36
2023/09/20 11:50:44;;;;;;;2.15;1.70;;;22.30;99.90;;;;;;5086761;27;20018;-36
2023/09/20 11:53:14;;;;;;;1.70;1.30;;;22.20;99.90;;;;;;5097237;27;20079;-36
2023/09/20 11:55:43;;;;;;;1.80;1.20;;;22.20;99.90;;;;;;5082507;27;20032;-35
2023/09/20 11:58:14;;;;;;;1.30;1.20;;;22.20;99.90;;;;;;5122399;27;20355;-36
2023/09/20 12:00:43;;;;;;;2.22;1.35;;;22.20;99.90;;;;;;5145808;27;20017;-34
2023/09/20 12:03:08;;;;;;;1.58;1.00;;;22.30;99.90;;;;;;5113311;27;20051;-35
2023/09/20 12:05:38;;;;;;;1.13;1.00;;;22.30;99.90;;;;;;5131493;27;20024;-36
2023/09/20 12:08:06;;;;;;;1.20;1.10;;;22.40;99.90;;;;;;5107247;27;20054;-36
2023/09/20 12:10:32;;;;;;;1.70;1.58;;;22.50;99.90;;;;;;5159143;27;20389;-37
2023/09/20 12:12:58;;;;;;;2.35;1.50;;;22.50;99.90;;;;;;5107038;27;20086;-37
2023/09/20 12:15:24;;;;;;;1.83;1.38;;;22.60;99.90;;;;;;5166838;27;20022;-37
2023/09/20 12:17:55;;;;;;;3.28;1.60;;;22.70;99.90;;;;;;5099988;27;20451;-36
2023/09/20 12:20:22;;;;;;;2.20;1.40;;;22.70;99.90;;;;;;5166576;27;20739;-35
2023/09/20 12:22:47;;;;;;;1.67;1.30;;;22.80;99.90;;;;;;5100314;27;20071;-34
2023/09/20 12:25:16;;;;;;;2.17;1.25;;;22.90;99.90;;;;;;5168514;27;20049;-35
2023/09/20 12:27:43;;;;;;;3.00;1.42;;;22.90;99.90;;;;;;5107235;27;20033;-36
2023/09/20 12:30:18;;;;;;;1.67;1.10;;;22.90;99.90;;;;;;5168296;27;20015;-36
2023/09/20 12:32:44;;;;;;;1.60;0.98;;;22.90;99.90;;;;;;5112781;27;20025;-36
2023/09/20 12:35:10;;;;;;;2.33;1.20;;;22.90;99.90;;;;;;5160774;27;20037;-36
2023/09/20 12:37:37;;;;;;;1.85;1.55;;;22.90;99.90;;;;;;5127167;27;20017;-36
2023/09/20 12:40:08;;;;;;;2.38;2.05;;;22.90;99.90;;;;;;5148070;27;20037;-36
2023/09/20 12:42:34;;;;;;;3.28;2.28;;;22.90;99.90;;;;;;5136729;27;20141;-37
2023/09/20 12:45:04;;;;;;;1.60;1.50;;;22.90;99.90;;;;;;5138330;27;20691;-34
2023/09/20 12:47:33;;;;;;;1.95;1.67;;;22.90;99.90;;;;;;5145519;27;20029;-35
2023/09/20 12:50:00;;;;;;;2.65;1.90;;;22.90;99.90;;;;;;5130994;27;20022;-35
2023/09/20 12:52:26;;;;;;;1.80;1.50;;;22.90;99.90;;;;;;5156631;27;20042;-36
2023/09/20 12:54:52;;;;;;;1.67;1.50;;;22.90;99.90;;;;;;5118299;27;20461;-36
2023/09/20 12:57:17;;;;;;;2.13;1.52;;;22.90;99.90;;;;;;5162531;27;20064;-37
2023/09/20 12:59:43;;;;;;;2.38;1.85;;;22.90;99.90;;;;;;5111279;27;20025;-36
2023/09/20 13:02:08;;;;;;;3.58;1.60;;;22.90;99.90;;;;;;5164319;27;20026;-35
2023/09/20 13:04:34;;;;;;;1.80;1.30;;;22.80;99.90;;;;;;5115069;27;20011;-36
2023/09/20 13:07:00;;;;;;;2.92;1.38;;;22.90;99.90;;;;;;5169155;27;20083;-36
2023/09/20 13:09:27;;;;;;;1.95;1.50;;;22.90;99.90;;;;;;5103554;27;20108;-37
2023/09/20 13:11:53;;;;;;;2.63;1.80;;;22.90;99.90;;;;;;5170455;27;20022;-36
2023/09/20 13:14:19;;;;;;;1.80;1.40;;;22.90;99.90;;;;;;5103058;27;20552;-38
2023/09/20 13:16:50;;;;;;;1.65;1.55;;;23.00;99.90;;;;;;5045098;28;20747;-37
2023/09/20 13:19:16;;;;;;;1.85;1.52;;;23.00;99.90;;;;;;5114644;27;20064;-38
2023/09/20 13:21:42;;;;;;;1.98;1.70;;;23.00;99.90;;;;;;5072328;27;20041;-37
2023/09/20 13:24:08;;;;;;;1.95;1.30;;;23.10;99.90;;;;;;5071212;27;20024;-37
2023/09/20 13:26:35;;;;;;;2.63;1.63;;;23.10;99.90;;;;;;5146917;27;20034;-42
2023/09/20 13:29:01;;;;;;;2.40;1.20;;;23.10;99.90;;;;;;5138605;27;20100;-38
2023/09/20 13:31:27;;;;;;;2.28;1.60;;;23.20;99.90;;;;;;5133966;27;20036;-38
2023/09/20 13:33:52;;;;;;;3.35;1.48;;;23.30;99.90;;;;;;5152711;27;20035;-36